Time;durP1;ratioP1;P1;durP2;ratioP2;P2;SDS_P1;SDS_P2;PMS_P1;PMS_P2;Temp;Humidity;BMP_temperature;BMP_pressure;BME280_temperature;BME280_humidity;BME280_pressure;Samples;Min_cycle;Max_cycle;Signal;HPM_P1;HPM_P2
2022/04/12 00:01:49;;;;;;;12.40;6.78;;;;;;;;;;5053625;28;20033;-67
2022/04/12 00:04:15;;;;;;;14.10;8.00;;;;;;;;;;5035699;28;20094;-67
2022/04/12 00:06:41;;;;;;;16.10;7.43;;;;;;;;;;5035771;28;20498;-67
2022/04/12 00:09:07;;;;;;;14.15;6.82;;;;;;;;;;5034821;28;20507;-66
2022/04/12 00:11:33;;;;;;;13.43;7.07;;;;;;;;;;5019068;28;20438;-67
2022/04/12 00:13:59;;;;;;;12.13;6.97;;;;;;;;;;5035609;28;20422;-67
2022/04/12 00:16:25;;;;;;;12.27;7.80;;;;;;;;;;5035867;28;20060;-67
2022/04/12 00:19:02;;;;;;;12.02;7.20;;;;;;;;;;5035241;28;20079;-66
2022/04/12 00:21:34;;;;;;;12.88;7.68;;;8.00;99.90;;;;;;5018679;28;20132;-67
2022/04/12 00:23:59;;;;;;;16.02;7.68;;;;;;;;;;5019018;28;20047;-67
2022/04/12 00:26:25;;;;;;;12.18;7.55;;;;;;;;;;5035454;28;20128;-67
2022/04/12 00:28:51;;;;;;;18.42;8.70;;;;;;;;;;5035235;28;20037;-66
2022/04/12 00:31:17;;;;;;;11.02;6.90;;;;;;;;;;5035299;28;20101;-67
2022/04/12 00:33:43;;;;;;;10.18;6.97;;;7.80;99.90;;;;;;5035138;28;20498;-67
2022/04/12 00:36:09;;;;;;;14.68;7.28;;;;;;;;;;5035473;28;20722;-67
2022/04/12 00:38:40;;;;;;;12.35;7.60;;;;;;;;;;5019156;28;20056;-67
2022/04/12 00:41:07;;;;;;;12.95;7.80;;;;;;;;;;5052476;28;20037;-67
2022/04/12 00:43:35;;;;;;;12.57;7.50;;;7.80;99.90;;;;;;5035352;28;20041;-67
2022/04/12 00:46:02;;;;;;;10.90;7.63;;;7.90;99.90;;;;;;5053002;28;20479;-66
2022/04/12 00:48:33;;;;;;;13.55;8.15;;;7.80;99.90;;;;;;5052994;28;20091;-67
2022/04/12 00:50:59;;;;;;;10.20;7.28;;;7.60;99.90;;;;;;5033680;28;20048;-67
2022/04/12 00:53:26;;;;;;;11.77;7.70;;;7.70;99.90;;;;;;5034761;28;20046;-67
2022/04/12 00:55:52;;;;;;;10.88;7.68;;;7.70;99.90;;;;;;5052543;28;20037;-67
2022/04/12 00:58:18;;;;;;;13.15;7.85;;;;;;;;;;5052795;28;20087;-67
2022/04/12 01:00:44;;;;;;;11.00;7.00;;;;;;;;;;5051943;28;20041;-67
2022/04/12 01:03:10;;;;;;;10.45;7.22;;;7.70;99.90;;;;;;5077924;22;20048;-66
2022/04/12 01:05:36;;;;;;;11.00;7.60;;;7.60;99.90;;;;;;5074363;28;20040;-69
2022/04/12 01:08:02;;;;;;;12.27;7.35;;;7.80;99.90;;;;;;5093334;28;20032;-68
2022/04/12 01:10:29;;;;;;;10.05;7.28;;;7.70;99.90;;;;;;5074076;28;20040;-68
2022/04/12 01:12:55;;;;;;;12.65;7.03;;;;;;;;;;5074623;28;20088;-68
2022/04/12 01:15:25;;;;;;;12.20;7.45;;;;;;;;;;5092859;28;20069;-68
2022/04/12 01:17:52;;;;;;;11.77;7.18;;;7.40;99.90;;;;;;5092881;28;20114;-69
2022/04/12 01:20:23;;;;;;;12.13;7.47;;;7.50;99.90;;;;;;5091724;28;20119;-69
2022/04/12 01:23:01;;;;;;;14.75;8.75;;;7.60;99.90;;;;;;5057668;28;20032;-69
2022/04/12 01:25:27;;;;;;;13.40;8.00;;;7.40;99.90;;;;;;5092732;28;20047;-69
2022/04/12 01:27:53;;;;;;;8.73;6.90;;;;;;;;;;5057622;28;20032;-69
2022/04/12 01:30:19;;;;;;;13.10;7.88;;;7.40;99.90;;;;;;5073599;28;20093;-69
2022/04/12 01:32:45;;;;;;;12.52;7.88;;;;;;;;;;5092835;28;20040;-69
2022/04/12 01:35:11;;;;;;;11.70;8.00;;;;;;;;;;5092326;28;20066;-69
2022/04/12 01:37:37;;;;;;;9.70;7.57;;;;;;;;;;5092460;28;20044;-70
2022/04/12 01:40:04;;;;;;;12.55;7.78;;;7.30;99.90;;;;;;5056710;28;20043;-69
2022/04/12 01:42:30;;;;;;;12.38;7.45;;;7.30;99.90;;;;;;5074178;28;20036;-69
2022/04/12 01:44:56;;;;;;;13.27;8.30;;;;;;;;;;5057655;28;20035;-70
2022/04/12 01:47:22;;;;;;;14.55;8.15;;;;;;;;;;5092181;28;20035;-69
2022/04/12 01:49:48;;;;;;;10.93;7.93;;;;;;;;;;5073305;28;20422;-69
2022/04/12 01:52:15;;;;;;;13.05;8.52;;;;;;;;;;5057209;28;20062;-69
2022/04/12 01:54:41;;;;;;;12.90;7.25;;;7.40;99.90;;;;;;5092234;28;20191;-69
2022/04/12 01:57:07;;;;;;;12.82;7.28;;;;;;;;;;5073987;28;20111;-69
2022/04/12 01:59:32;;;;;;;13.25;7.53;;;7.20;99.90;;;;;;5056343;28;20165;-69
2022/04/12 02:01:58;;;;;;;13.98;7.65;;;;;;;;;;5091765;28;20032;-70
2022/04/12 02:04:24;;;;;;;11.77;7.45;;;;;;;;;;5057006;28;20039;-69
2022/04/12 02:06:50;;;;;;;11.95;7.80;;;7.00;99.90;;;;;;5073872;28;20036;-69
2022/04/12 02:09:16;;;;;;;11.63;7.38;;;;;;;;;;5072968;28;20063;-69
2022/04/12 02:11:42;;;;;;;14.48;7.75;;;;;;;;;;5073907;28;20096;-69
2022/04/12 02:14:08;;;;;;;12.63;8.07;;;7.10;99.90;;;;;;5073730;28;20120;-69
2022/04/12 02:16:36;;;;;;;14.50;8.80;;;7.00;99.90;;;;;;5073593;28;20042;-69
2022/04/12 02:19:03;;;;;;;14.15;8.50;;;7.10;99.90;;;;;;5090382;28;20032;-69
2022/04/12 02:21:28;;;;;;;11.38;7.30;;;7.10;99.90;;;;;;5056958;28;20362;-69
2022/04/12 02:23:54;;;;;;;10.75;7.50;;;;;;;;;;5091710;28;20063;-69
2022/04/12 02:26:20;;;;;;;13.63;8.05;;;7.00;99.90;;;;;;5073516;28;20063;-69
2022/04/12 02:28:46;;;;;;;11.77;8.63;;;;;;;;;;5056850;28;20048;-69
2022/04/12 02:31:11;;;;;;;13.05;7.97;;;6.90;99.90;;;;;;5072896;28;20169;-69
2022/04/12 02:33:37;;;;;;;11.50;7.95;;;6.90;99.90;;;;;;5073337;28;20036;-69
2022/04/12 02:36:03;;;;;;;15.55;9.20;;;;;;;;;;5073490;28;20043;-69
2022/04/12 02:38:29;;;;;;;15.30;8.55;;;6.90;99.90;;;;;;5091405;28;20516;-69
2022/04/12 02:40:54;;;;;;;16.67;9.05;;;;;;;;;;5072574;28;20040;-70
2022/04/12 02:43:20;;;;;;;12.05;8.40;;;;;;;;;;5056583;28;20044;-69
2022/04/12 02:45:47;;;;;;;12.35;8.25;;;6.80;99.90;;;;;;5091534;28;20067;-69
2022/04/12 02:48:12;;;;;;;11.95;8.65;;;6.80;99.90;;;;;;5091381;28;20040;-69
2022/04/12 02:50:38;;;;;;;13.48;9.05;;;6.90;99.90;;;;;;5072413;28;20457;-69
2022/04/12 02:53:04;;;;;;;11.00;7.65;;;6.90;99.90;;;;;;5091254;28;20513;-69
2022/04/12 02:55:29;;;;;;;13.65;8.73;;;6.90;99.90;;;;;;5073245;28;20080;-69
2022/04/12 02:57:55;;;;;;;11.75;8.18;;;;;;;;;;5073264;28;20050;-69
2022/04/12 03:00:21;;;;;;;13.73;8.57;;;7.00;99.90;;;;;;5072334;28;20127;-69
2022/04/12 03:02:47;;;;;;;13.00;7.97;;;;;;;;;;5091089;28;20036;-69
2022/04/12 03:05:12;;;;;;;16.42;8.68;;;6.90;99.90;;;;;;5091194;28;20062;-69
2022/04/12 03:07:38;;;;;;;18.58;9.27;;;6.80;99.90;;;;;;5073169;28;20122;-69
2022/04/12 03:10:04;;;;;;;13.52;8.75;;;;;;;;;;5090426;28;20040;-69
2022/04/12 03:12:30;;;;;;;12.13;8.45;;;;;;;;;;5056298;28;20044;-69
2022/04/12 03:14:56;;;;;;;11.77;8.57;;;;;;;;;;5073200;28;20105;-70
2022/04/12 03:17:22;;;;;;;13.70;8.82;;;;;;;;;;5072925;28;20104;-69
2022/04/12 03:19:48;;;;;;;14.38;8.57;;;6.70;99.90;;;;;;5055527;28;20040;-69
2022/04/12 03:22:13;;;;;;;13.38;9.25;;;6.70;99.90;;;;;;5073160;28;20046;-69
2022/04/12 03:24:39;;;;;;;12.75;8.70;;;;;;;;;;5091227;28;20030;-68
2022/04/12 03:27:06;;;;;;;13.80;9.50;;;;;;;;;;5073174;28;20131;-69
2022/04/12 03:29:31;;;;;;;15.73;10.10;;;;;;;;;;5092021;28;20121;-69
2022/04/12 03:31:57;;;;;;;13.48;8.98;;;;;;;;;;5094494;28;20431;-69
2022/04/12 03:34:23;;;;;;;13.68;9.43;;;;;;;;;;5076757;28;20047;-69
2022/04/12 03:36:49;;;;;;;13.65;8.43;;;;;;;;;;5076449;28;20533;-69
2022/04/12 03:39:18;;;;;;;13.82;9.45;;;;;;;;;;5075729;28;20348;-69
2022/04/12 03:41:48;;;;;;;17.35;8.98;;;;;;;;;;5094443;28;20512;-69
2022/04/12 03:44:14;;;;;;;10.93;8.57;;;;;;;;;;5076397;28;20485;-69
2022/04/12 03:46:40;;;;;;;14.00;9.07;;;6.90;99.90;;;;;;5076392;28;20032;-69
2022/04/12 03:49:06;;;;;;;13.35;9.88;;;;;;;;;;5094038;28;20119;-67
2022/04/12 03:51:32;;;;;;;19.05;10.20;;;;;;;;;;5076066;28;20047;-69
2022/04/12 03:53:57;;;;;;;14.15;9.15;;;6.60;99.90;;;;;;5075977;28;20516;-69
2022/04/12 03:56:24;;;;;;;13.93;8.57;;;;;;;;;;5094251;28;20040;-69
2022/04/12 03:58:50;;;;;;;15.63;9.68;;;;;;;;;;5076257;28;20513;-69
2022/04/12 04:01:16;;;;;;;16.00;9.55;;;;;;;;;;5075298;28;20039;-69
2022/04/12 04:03:42;;;;;;;15.10;9.32;;;;;;;;;;5093859;28;20127;-69
2022/04/12 04:06:07;;;;;;;13.38;8.80;;;6.60;99.90;;;;;;5075882;28;20036;-69
2022/04/12 04:08:33;;;;;;;16.42;9.25;;;;;;;;;;5094175;28;20090;-70
2022/04/12 04:10:59;;;;;;;14.13;9.68;;;;;;;;;;5075302;28;20044;-69
2022/04/12 04:13:29;;;;;;;13.80;9.63;;;6.50;99.90;;;;;;5075704;28;20515;-69
2022/04/12 04:15:55;;;;;;;13.40;9.35;;;;;;;;;;5059234;28;20378;-69
2022/04/12 04:18:21;;;;;;;14.32;8.93;;;;;;;;;;5075801;28;20050;-69
2022/04/12 04:20:48;;;;;;;14.57;9.85;;;;;;;;;;5093164;28;20123;-69
2022/04/12 04:23:14;;;;;;;14.05;9.45;;;;;;;;;;5058909;28;20078;-69
2022/04/12 04:25:39;;;;;;;13.88;8.70;;;6.60;99.90;;;;;;5075546;28;20032;-69
2022/04/12 04:28:11;;;;;;;13.52;9.38;;;6.70;99.90;;;;;;5075617;28;20111;-69
2022/04/12 04:30:38;;;;;;;17.75;9.25;;;6.50;99.90;;;;;;5092744;28;20079;-70
2022/04/12 04:33:04;;;;;;;14.93;8.65;;;;;;;;;;5093404;28;20406;-69
2022/04/12 04:35:30;;;;;;;14.43;9.30;;;6.50;99.90;;;;;;5058609;28;20042;-69
2022/04/12 04:37:55;;;;;;;15.02;9.75;;;6.50;99.90;;;;;;5075304;28;20084;-69
2022/04/12 04:40:22;;;;;;;14.40;9.45;;;6.50;99.90;;;;;;5073884;28;20494;-69
2022/04/12 04:42:51;;;;;;;13.40;9.20;;;6.50;99.90;;;;;;5075300;28;20075;-69
2022/04/12 04:45:16;;;;;;;15.93;9.25;;;6.50;99.90;;;;;;5058401;28;20085;-68
2022/04/12 04:47:53;;;;;;;15.50;10.27;;;6.40;99.90;;;;;;5075055;28;20032;-69
2022/04/12 04:50:21;;;;;;;17.42;9.52;;;6.40;99.90;;;;;;5092562;28;20044;-69
2022/04/12 04:52:47;;;;;;;18.17;9.88;;;;;;;;;;5058247;28;20036;-69
2022/04/12 04:55:13;;;;;;;14.32;10.23;;;6.50;99.90;;;;;;5075040;28;20072;-69
2022/04/12 04:57:42;;;;;;;15.82;8.85;;;6.60;99.90;;;;;;5058087;28;20046;-69
2022/04/12 05:00:15;;;;;;;18.48;11.00;;;6.60;99.90;;;;;;5057301;28;20071;-69
2022/04/12 05:02:42;;;;;;;18.00;10.30;;;6.60;99.90;;;;;;5092935;28;20409;-69
2022/04/12 05:05:07;;;;;;;16.27;9.60;;;6.60;99.90;;;;;;5074846;28;20044;-69
2022/04/12 05:07:33;;;;;;;15.93;10.07;;;;;;;;;;5058242;28;20089;-69
2022/04/12 05:09:59;;;;;;;15.77;10.30;;;6.70;99.90;;;;;;5057097;28;20047;-69
2022/04/12 05:12:25;;;;;;;16.60;10.15;;;;;;;;;;5092882;28;20039;-69
2022/04/12 05:14:51;;;;;;;17.08;11.15;;;;;;;;;;5074840;28;20478;-70
2022/04/12 05:17:27;;;;;;;15.80;10.30;;;6.70;99.90;;;;;;5092842;28;20047;-69
2022/04/12 05:19:56;;;;;;;14.57;9.85;;;6.90;99.90;;;;;;5073882;28;20036;-70
2022/04/12 05:22:22;;;;;;;14.88;10.15;;;;;;;;;;5074233;28;20090;-69
2022/04/12 05:24:48;;;;;;;14.75;9.57;;;6.80;99.90;;;;;;5074575;28;20040;-69
2022/04/12 05:27:14;;;;;;;18.90;10.82;;;6.70;99.90;;;;;;5074623;28;20032;-69
2022/04/12 05:29:39;;;;;;;16.23;9.93;;;;;;;;;;5073433;28;20459;-69
2022/04/12 05:32:05;;;;;;;15.50;10.30;;;6.90;99.90;;;;;;5092425;28;20036;-69
2022/04/12 05:34:31;;;;;;;16.85;10.13;;;;;;;;;;5057855;28;20040;-69
2022/04/12 05:36:57;;;;;;;15.60;9.93;;;6.90;99.90;;;;;;5092298;28;20129;-69
2022/04/12 05:39:23;;;;;;;13.70;9.10;;;7.00;99.90;;;;;;5056674;28;20490;-69
2022/04/12 05:41:49;;;;;;;15.70;10.18;;;;;;;;;;5074149;28;20050;-69
2022/04/12 05:44:15;;;;;;;17.50;10.25;;;;;;;;;;5074003;28;20100;-69
2022/04/12 05:46:41;;;;;;;18.08;10.05;;;;;;;;;;5074270;28;20032;-70
2022/04/12 05:49:07;;;;;;;17.20;10.05;;;;;;;;;;5091439;28;20464;-70
2022/04/12 05:51:33;;;;;;;13.60;9.48;;;;;;;;;;5073735;28;20116;-69
2022/04/12 05:53:59;;;;;;;15.27;9.63;;;;;;;;;;5073195;28;20036;-68
2022/04/12 05:56:25;;;;;;;14.07;9.38;;;;;;;;;;5092385;28;20412;-69
2022/04/12 05:58:51;;;;;;;17.13;9.40;;;;;;;;;;5073667;28;20089;-69
2022/04/12 06:01:17;;;;;;;16.00;9.63;;;;;;;;;;5091776;28;20409;-70
2022/04/12 06:03:42;;;;;;;14.80;9.23;;;7.60;99.90;;;;;;5057287;28;20436;-69
2022/04/12 06:06:08;;;;;;;15.57;9.85;;;;;;;;;;5074860;28;20032;-70
2022/04/12 06:08:34;;;;;;;15.05;9.75;;;;;;;;;;5086458;28;20104;-70
2022/04/12 06:11:00;;;;;;;13.80;8.82;;;;;;;;;;5068030;28;20077;-69
2022/04/12 06:13:26;;;;;;;14.77;8.82;;;;;;;;;;5087517;28;20044;-70
2022/04/12 06:15:52;;;;;;;18.00;10.00;;;;;;;;;;5088975;28;20634;-71
2022/04/12 06:18:18;;;;;;;15.05;9.73;;;7.80;99.90;;;;;;5105888;28;20092;-70
2022/04/12 06:20:44;;;;;;;16.45;9.02;;;;;;;;;;5059442;28;20479;-69
2022/04/12 06:23:09;;;;;;;16.60;9.27;;;7.80;99.90;;;;;;5057233;28;20694;-69
2022/04/12 06:25:35;;;;;;;13.95;9.88;;;;;;;;;;5040822;28;20155;-70
2022/04/12 06:28:01;;;;;;;15.65;9.57;;;;;;;;;;5061843;28;20039;-70
2022/04/12 06:30:30;;;;;;;16.67;9.75;;;;;;;;;;5040818;28;20086;-70
2022/04/12 06:32:56;;;;;;;15.70;9.63;;;;;;;;;;5080044;28;20035;-70
2022/04/12 06:35:23;;;;;;;12.52;9.57;;;;;;;;;;5049620;28;20046;-70
2022/04/12 06:37:52;;;;;;;16.48;9.82;;;;;;;;;;5064811;28;20159;-70
2022/04/12 06:40:19;;;;;;;16.20;10.02;;;;;;;;;;5063015;28;20048;-71
2022/04/12 06:42:46;;;;;;;16.95;9.57;;;;;;;;;;5036514;28;20047;-71
2022/04/12 06:45:12;;;;;;;16.13;10.05;;;;;;;;;;5049593;28;20036;-71
2022/04/12 06:47:38;;;;;;;14.90;9.38;;;;;;;;;;5052929;28;20044;-70
2022/04/12 06:50:05;;;;;;;17.35;10.13;;;;;;;;;;5031649;28;20043;-71
2022/04/12 06:52:32;;;;;;;16.17;8.85;;;8.10;99.90;;;;;;5049628;28;20045;-71
2022/04/12 06:54:58;;;;;;;15.88;9.57;;;;;;;;;;5054621;28;20054;-70
2022/04/12 06:57:24;;;;;;;14.75;8.75;;;;;;;;;;5092311;28;20413;-70
2022/04/12 06:59:51;;;;;;;15.25;10.13;;;;;;;;;;5071967;28;20040;-72
2022/04/12 07:04:46;;;;;;;15.80;10.10;;;;;;;;;;5096340;22;20048;-68
2022/04/12 07:07:12;;;;;;;13.88;9.48;;;;;;;;;;5056810;28;20043;-68
2022/04/12 07:09:38;;;;;;;15.50;9.15;;;8.60;99.90;;;;;;5056421;28;20041;-69
2022/04/12 07:12:04;;;;;;;15.35;9.38;;;;;;;;;;5040220;28;20037;-69
2022/04/12 07:14:31;;;;;;;12.15;8.65;;;;;;;;;;5056709;28;20048;-69
2022/04/12 07:16:57;;;;;;;16.45;9.77;;;;;;;;;;5056757;28;20410;-68
2022/04/12 07:19:23;;;;;;;14.40;10.07;;;8.60;99.90;;;;;;5073686;28;20097;-69
2022/04/12 07:21:49;;;;;;;12.68;9.23;;;;;;;;;;5057669;28;20029;-69
2022/04/12 07:24:15;;;;;;;14.65;9.40;;;8.90;99.90;;;;;;5057559;28;20040;-69
2022/04/12 07:26:41;;;;;;;15.57;9.93;;;9.00;99.90;;;;;;5074758;28;20037;-69
2022/04/12 07:29:07;;;;;;;13.57;9.60;;;9.00;99.90;;;;;;5038080;28;20044;-64
2022/04/12 07:31:33;;;;;;;15.40;9.18;;;9.20;99.90;;;;;;5056296;28;20040;-68
2022/04/12 07:33:59;;;;;;;15.88;9.65;;;;;;;;;;5074293;28;20068;-68
2022/04/12 07:36:26;;;;;;;18.73;10.63;;;;;;;;;;5056256;28;20079;-67
2022/04/12 07:38:52;;;;;;;14.23;9.55;;;;;;;;;;5055498;28;20056;-66
2022/04/12 07:41:18;;;;;;;15.85;9.85;;;9.50;99.90;;;;;;5056017;28;20037;-68
2022/04/12 07:43:45;;;;;;;11.77;7.82;;;9.60;99.90;;;;;;5056115;28;20171;-68
2022/04/12 07:46:12;;;;;;;13.55;8.48;;;9.80;99.90;;;;;;5054452;28;20029;-66
2022/04/12 07:48:39;;;;;;;15.77;8.90;;;9.80;99.90;;;;;;5052163;28;20036;-68
2022/04/12 07:51:04;;;;;;;13.55;9.35;;;9.90;99.90;;;;;;5053172;28;20080;-68
2022/04/12 07:53:30;;;;;;;15.70;9.50;;;;;;;;;;5062916;28;20079;-68
2022/04/12 07:55:55;;;;;;;12.10;7.78;;;10.00;99.90;;;;;;5073916;28;20136;-68
2022/04/12 07:58:22;;;;;;;17.13;9.30;;;;;;;;;;5073753;28;20044;-68
2022/04/12 08:00:48;;;;;;;14.85;9.40;;;;;;;;;;5072894;28;20045;-68
2022/04/12 08:03:14;;;;;;;12.20;8.07;;;;;;;;;;5055370;28;20041;-68
2022/04/12 08:05:39;;;;;;;11.45;7.70;;;10.70;99.90;;;;;;5056342;28;20040;-68
2022/04/12 08:08:05;;;;;;;12.95;8.48;;;;;;;;;;5055437;28;20032;-68
2022/04/12 08:10:31;;;;;;;12.88;8.40;;;10.90;99.90;;;;;;5071124;28;20440;-68
2022/04/12 08:12:57;;;;;;;12.65;7.88;;;;;;;;;;5073385;28;20410;-68
2022/04/12 08:15:23;;;;;;;14.07;8.73;;;;;;;;;;5071119;28;20043;-68
2022/04/12 08:17:50;;;;;;;13.27;8.10;;;;;;;;;;5073212;28;20567;-68
2022/04/12 08:20:16;;;;;;;12.32;8.45;;;;;;;;;;5058877;28;20123;-68
2022/04/12 08:22:43;;;;;;;16.33;7.88;;;11.30;99.90;;;;;;5054455;28;20070;-68
2022/04/12 08:25:09;;;;;;;10.88;7.43;;;11.30;99.90;;;;;;5073211;28;20449;-68
2022/04/12 08:27:36;;;;;;;11.43;8.30;;;11.30;99.90;;;;;;5073193;28;20086;-69
2022/04/12 08:30:03;;;;;;;11.98;8.38;;;11.50;99.90;;;;;;5054667;28;20041;-68
2022/04/12 08:32:29;;;;;;;11.07;7.65;;;;;;;;;;5073727;28;20036;-68
2022/04/12 08:34:55;;;;;;;13.77;8.50;;;11.60;99.90;;;;;;5076204;28;20071;-69
2022/04/12 08:37:21;;;;;;;11.50;8.65;;;11.70;99.90;;;;;;5055501;28;20498;-68
2022/04/12 08:39:47;;;;;;;12.38;8.30;;;11.70;99.90;;;;;;5054237;28;20037;-69
2022/04/12 08:42:13;;;;;;;11.02;7.60;;;11.80;99.90;;;;;;5072976;28;20039;-69
2022/04/12 08:44:44;;;;;;;13.20;8.45;;;12.00;99.90;;;;;;5054893;28;20135;-69
2022/04/12 08:47:10;;;;;;;14.70;8.10;;;;;;;;;;5072821;28;20040;-69
2022/04/12 08:49:38;;;;;;;13.88;8.15;;;12.20;99.90;;;;;;5070838;28;20043;-69
2022/04/12 08:52:04;;;;;;;11.50;7.63;;;12.00;99.90;;;;;;5069288;28;20115;-69
2022/04/12 08:54:32;;;;;;;14.13;7.03;;;12.00;99.90;;;;;;5054152;28;20463;-69
2022/04/12 08:56:58;;;;;;;10.75;7.53;;;12.30;99.90;;;;;;5054179;28;20218;-69
2022/04/12 08:59:25;;;;;;;12.98;8.27;;;;;;;;;;5071758;28;20496;-69
2022/04/12 09:01:51;;;;;;;11.95;7.13;;;12.60;99.90;;;;;;5038249;28;20380;-69
2022/04/12 09:04:17;;;;;;;13.85;7.40;;;;;;;;;;5054412;28;20037;-69
2022/04/12 09:06:53;;;;;;;14.30;8.45;;;12.70;99.90;;;;;;5054301;28;20040;-69
2022/04/12 09:09:22;;;;;;;11.20;8.38;;;12.80;99.90;;;;;;5071589;28;20043;-69
2022/04/12 09:11:58;;;;;;;11.25;7.68;;;13.00;99.90;;;;;;5072279;28;20410;-69
2022/04/12 09:14:25;;;;;;;12.90;7.80;;;;;;;;;;5054140;28;20040;-69
2022/04/12 09:16:52;;;;;;;14.65;7.50;;;;;;;;;;5037764;28;20093;-69
2022/04/12 09:19:41;;;;;;;11.05;7.35;;;13.40;99.90;;;;;;5053441;28;20045;-68
2022/04/12 09:22:12;;;;;;;12.43;7.95;;;13.40;99.90;;;;;;5054110;28;20041;-69
2022/04/12 09:24:46;;;;;;;11.98;8.27;;;13.30;99.90;;;;;;5071873;28;20441;-69
2022/04/12 09:27:17;;;;;;;10.30;7.97;;;13.70;99.90;;;;;;5039878;28;20040;-69
2022/04/12 09:29:45;;;;;;;11.77;7.45;;;13.60;99.90;;;;;;5070519;28;20036;-69
2022/04/12 09:32:14;;;;;;;10.98;7.47;;;13.70;99.90;;;;;;5036811;28;20040;-69
2022/04/12 09:34:44;;;;;;;10.80;7.75;;;13.80;99.90;;;;;;5071825;28;20229;-69
2022/04/12 09:37:20;;;;;;;14.82;8.35;;;13.90;99.90;;;;;;5053910;28;20090;-69
2022/04/12 09:39:55;;;;;;;12.35;7.65;;;13.70;99.90;;;;;;5052857;28;20050;-69
2022/04/12 09:42:41;;;;;;;15.10;8.18;;;13.90;99.90;;;;;;5071468;28;20513;-69
2022/04/12 09:45:10;;;;;;;10.43;7.53;;;13.90;99.90;;;;;;5053697;28;20044;-68
2022/04/12 09:47:35;;;;;;;13.15;8.00;;;14.00;99.90;;;;;;5071352;28;20059;-69
2022/04/12 09:50:02;;;;;;;13.60;7.47;;;13.90;99.90;;;;;;5070909;28;20505;-69
2022/04/12 09:52:28;;;;;;;12.32;7.60;;;14.20;99.90;;;;;;5069863;28;20049;-69
2022/04/12 09:54:57;;;;;;;11.25;7.45;;;;;;;;;;5071595;28;20379;-69
2022/04/12 09:57:25;;;;;;;12.23;7.47;;;14.40;99.90;;;;;;5070694;28;20047;-69
2022/04/12 09:59:55;;;;;;;11.88;6.90;;;14.40;99.90;;;;;;5070689;28;20037;-69
2022/04/12 10:02:23;;;;;;;10.45;7.13;;;14.60;99.90;;;;;;5056863;28;20116;-69
2022/04/12 10:04:51;;;;;;;12.93;7.70;;;14.70;99.90;;;;;;5052878;28;20036;-69
2022/04/12 10:07:18;;;;;;;15.98;7.35;;;14.80;99.90;;;;;;5052761;28;20036;-68
2022/04/12 10:09:47;;;;;;;11.40;7.70;;;14.90;99.90;;;;;;5031987;28;20106;-69
2022/04/12 10:12:12;;;;;;;12.65;7.40;;;15.20;99.90;;;;;;5068582;28;20132;-69
2022/04/12 10:14:38;;;;;;;12.40;7.28;;;15.00;99.90;;;;;;5052979;28;20123;-69
2022/04/12 10:17:04;;;;;;;12.43;7.30;;;15.10;99.90;;;;;;5036614;28;20052;-70
2022/04/12 10:19:31;;;;;;;12.45;7.30;;;15.30;99.90;;;;;;5051992;28;20052;-70
2022/04/12 10:21:56;;;;;;;12.13;7.32;;;15.30;99.90;;;;;;5052670;28;20115;-70
2022/04/12 10:24:23;;;;;;;11.15;7.43;;;15.20;99.90;;;;;;5052633;28;20119;-70
2022/04/12 10:26:50;;;;;;;10.73;7.50;;;15.30;99.90;;;;;;5052811;28;20483;-70
2022/04/12 10:29:16;;;;;;;11.02;6.55;;;;;;;;;;5069857;28;20397;-70
2022/04/12 10:32:04;;;;;;;9.85;6.40;;;15.60;99.90;;;;;;5060904;28;20462;-69
2022/04/12 10:34:30;;;;;;;13.52;7.53;;;;;;;;;;5068837;28;20558;-69
2022/04/12 10:37:00;;;;;;;12.18;7.78;;;15.60;99.90;;;;;;5069138;28;20078;-68
2022/04/12 10:39:56;;;;;;;14.23;7.97;;;15.90;99.80;;;;;;5070024;28;20109;-67
2022/04/12 10:42:26;;;;;;;14.18;8.80;;;15.90;99.80;;;;;;5057970;28;20062;-69
2022/04/12 10:44:55;;;;;;;12.98;8.02;;;15.90;99.90;;;;;;5052647;28;20562;-69
2022/04/12 10:47:32;;;;;;;11.80;8.07;;;15.90;99.10;;;;;;5050686;28;20043;-70
2022/04/12 10:50:00;;;;;;;13.52;7.28;;;16.10;99.90;;;;;;5084404;28;20044;-69
2022/04/12 10:52:34;;;;;;;12.52;6.93;;;15.90;99.40;;;;;;5074889;28;20044;-69
2022/04/12 10:55:06;;;;;;;12.63;6.85;;;16.00;99.90;;;;;;5058514;28;20379;-69
2022/04/12 10:57:33;;;;;;;11.98;7.25;;;16.10;99.30;;;;;;5056907;28;20041;-69
2022/04/12 11:00:04;;;;;;;9.88;7.13;;;16.20;99.90;;;;;;5055583;28;20044;-70
2022/04/12 11:02:36;;;;;;;11.52;7.13;;;16.60;99.90;;;;;;5039565;28;20032;-70
2022/04/12 11:05:02;;;;;;;10.27;7.00;;;16.60;99.90;;;;;;5055423;28;20474;-69
2022/04/12 11:07:33;;;;;;;9.98;6.90;;;16.70;99.90;;;;;;5072794;28;20041;-69
2022/04/12 11:10:14;;;;;;;13.05;7.30;;;16.90;99.90;;;;;;5072955;28;20037;-69
2022/04/12 11:12:44;;;;;;;9.40;6.55;;;16.80;99.90;;;;;;5038390;28;20094;-70
2022/04/12 11:15:29;;;;;;;11.25;6.93;;;16.70;99.90;;;;;;5054966;28;20076;-70
2022/04/12 11:18:05;;;;;;;13.25;7.80;;;16.50;99.90;;;;;;5055319;28;20070;-69
2022/04/12 11:20:31;;;;;;;11.63;7.57;;;16.40;99.90;;;;;;5072583;28;20040;-70
2022/04/12 11:22:59;;;;;;;15.23;8.43;;;16.60;99.90;;;;;;5073108;28;20028;-70
2022/04/12 11:25:26;;;;;;;11.32;7.40;;;16.50;99.90;;;;;;5053657;28;20045;-69
2022/04/12 11:27:59;;;;;;;13.98;7.63;;;16.60;99.90;;;;;;5038547;28;20058;-70
2022/04/12 11:30:28;;;;;;;14.40;7.70;;;16.70;99.90;;;;;;5053717;28;20036;-70
2022/04/12 11:32:55;;;;;;;11.02;7.03;;;17.80;99.90;;;;;;5054586;28;20040;-70
2022/04/12 11:35:22;;;;;;;12.38;7.40;;;17.00;99.60;;;;;;5038283;28;20581;-70
2022/04/12 11:37:49;;;;;;;11.93;6.68;;;17.00;99.90;;;;;;5037571;28;20040;-71
2022/04/12 11:40:15;;;;;;;12.88;7.28;;;16.50;99.60;;;;;;5053321;28;20048;-71
2022/04/12 11:42:41;;;;;;;13.18;6.70;;;17.10;99.90;;;;;;5037855;28;20521;-71
2022/04/12 11:45:07;;;;;;;9.35;6.10;;;17.20;99.50;;;;;;5073218;28;20474;-72
2022/04/12 11:47:38;;;;;;;10.82;7.13;;;17.10;99.90;;;;;;5038015;28;20566;-71
2022/04/12 11:50:16;;;;;;;10.05;6.70;;;17.10;99.40;;;;;;5069807;28;20097;-70
2022/04/12 11:52:44;;;;;;;13.65;7.85;;;17.30;99.90;;;;;;5037713;28;20093;-71
2022/04/12 11:55:11;;;;;;;11.20;6.75;;;17.20;99.30;;;;;;5072598;28;20036;-71
2022/04/12 11:57:36;;;;;;;8.93;6.75;;;17.30;99.90;;;;;;5054643;28;20201;-71
2022/04/12 12:00:03;;;;;;;12.35;6.70;;;17.40;99.90;;;;;;5037312;28;20226;-71
2022/04/12 12:02:35;;;;;;;12.80;7.75;;;17.50;99.50;;;;;;5017780;28;1041908;-70
2022/04/12 12:05:13;;;;;;;10.43;6.55;;;17.50;98.90;;;;;;5056015;28;20448;-70
2022/04/12 12:07:39;;;;;;;10.43;7.05;;;17.60;99.20;;;;;;5055214;28;20433;-70
2022/04/12 12:10:11;;;;;;;18.02;7.60;;;17.80;99.90;;;;;;5054168;28;20493;-70
2022/04/12 12:12:47;;;;;;;11.05;7.28;;;17.90;99.40;;;;;;5055086;28;20367;-70
2022/04/12 12:15:17;;;;;;;9.60;6.88;;;17.70;98.60;;;;;;5070952;28;20068;-71
2022/04/12 12:17:44;;;;;;;10.52;7.00;;;17.70;98.60;;;;;;5054882;28;20044;-71
2022/04/12 12:20:11;;;;;;;13.60;7.50;;;17.60;98.70;;;;;;5037808;28;20660;-71
2022/04/12 12:22:39;;;;;;;11.77;6.95;;;17.60;98.80;;;;;;5073394;28;20046;-71
2022/04/12 12:25:06;;;;;;;9.15;6.65;;;18.40;99.50;;;;;;5055297;28;20469;-70
2022/04/12 12:27:33;;;;;;;13.10;7.57;;;17.90;98.90;;;;;;5055284;28;20068;-71
2022/04/12 12:30:07;;;;;;;9.45;6.30;;;17.70;99.90;;;;;;5054488;28;20249;-70
2022/04/12 12:32:34;;;;;;;11.25;7.43;;;17.90;99.90;;;;;;5054944;28;20040;-71
2022/04/12 12:35:05;;;;;;;13.38;7.32;;;17.90;99.40;;;;;;5073128;28;20051;-71
2022/04/12 12:37:31;;;;;;;11.95;7.45;;;18.00;98.80;;;;;;5072878;28;20083;-71
2022/04/12 12:39:57;;;;;;;11.18;6.95;;;18.00;99.90;;;;;;5072149;28;20040;-71
2022/04/12 12:42:23;;;;;;;12.30;7.50;;;;;;;;;;5054703;28;20038;-70
2022/04/12 12:44:49;;;;;;;12.80;7.70;;;18.10;98.50;;;;;;5054870;28;20036;-70
2022/04/12 12:47:15;;;;;;;12.05;8.25;;;18.00;99.70;;;;;;5054379;28;20063;-70
2022/04/12 12:49:42;;;;;;;12.60;7.03;;;18.00;98.60;;;;;;5053604;28;20036;-71
2022/04/12 12:52:14;;;;;;;8.82;6.55;;;17.90;98.90;;;;;;5053994;28;20039;-71
2022/04/12 12:54:40;;;;;;;10.23;6.45;;;17.90;99.80;;;;;;5035634;28;20415;-71
2022/04/12 12:57:08;;;;;;;12.88;7.00;;;18.00;99.10;;;;;;5021229;28;20040;-71
2022/04/12 12:59:35;;;;;;;12.52;7.80;;;17.70;98.90;;;;;;5020681;28;20033;-70
2022/04/12 13:02:12;;;;;;;13.38;7.38;;;17.80;99.10;;;;;;5072044;28;20044;-70
2022/04/12 13:04:41;;;;;;;14.07;8.05;;;18.00;98.60;;;;;;5065681;22;20244;-69
2022/04/12 13:07:11;;;;;;;11.52;7.38;;;17.90;99.90;;;;;;5015142;28;20045;-69
2022/04/12 13:09:42;;;;;;;10.93;8.25;;;17.90;99.90;;;;;;5014153;28;20049;-69
2022/04/12 13:12:09;;;;;;;13.70;8.77;;;18.60;99.00;;;;;;4998647;28;20380;-69
2022/04/12 13:14:36;;;;;;;13.48;7.78;;;18.00;99.30;;;;;;5032591;28;20117;-69
2022/04/12 13:17:03;;;;;;;12.27;8.05;;;18.00;99.30;;;;;;5014861;28;20038;-69
2022/04/12 13:19:31;;;;;;;13.98;8.43;;;18.10;99.00;;;;;;5031645;28;20041;-69
2022/04/12 13:21:59;;;;;;;17.35;9.20;;;18.10;99.10;;;;;;5014318;28;20049;-69
2022/04/12 13:24:25;;;;;;;15.93;9.48;;;18.00;99.80;;;;;;5031369;28;20039;-71